Аэропорт: Бесовец. Петрозаводск

ICAO: ULPB

METAR:
2018/07/16 19:00
ULPB 161900Z AUTO 00000MPS 9999 // NCD 21/16 Q1016 RMK QFE758/1010
METAR:
Информация по данной станции не доступна